Anatone, Washington
Current Conditions -  °F | °C
As of 3:56 PM on Monday 20 Oct 2014 (Local Time) from KLWS Reporting Station
Clear Clear  
Wind Chill: 73°   Ceiling: Unl
Heat Index: 73°   Visibility: 9mi
Dew Point: 40°   Wind: 6mph
Humidity: 30%   Direction: 290°WNW
Pressure: 29.7"   Gusts: NA
Location:  46.13°N, 117.13°W
Report Text: KLWS 202256Z 29005KT 9SM CLR 23/04 A2970 RMK AO2 SLP053 T02280044
Loading
Personal Weather Stations






























Interactive Weather Map New forecast layout! Learn more

10-Day Weather Forecast

Advertisements
Track Severe Weather on mobile